Aboyne, United Kingdom
Current Conditions -  °F | °C
As of 9:20 PM on Friday 28 Nov 2014 (Local Time) from EGPD Reporting Station
Drizzle Drizzle  
Wind Chill: 43°   Ceiling: 300
Heat Index: 48°   Visibility: 1.2mi
Dew Point: 48°   Wind: 12mph
Humidity: 100%   Direction: 130°SE
Pressure: 29.91"   Gusts: NA
Location:  57.08°N, 2.78°W
Report Text: EGPD 282120Z 13010KT 2000 DZ SCT001 BKN003 09/09 Q1013 NOSIG
Loading
Personal Weather Stations






























Interactive Weather Map New forecast layout! Learn more

10-Day Weather Forecast

Advertisements
Track Severe Weather on mobile